Pontoosuc, Illinois
Current Conditions -  °F | °C
As of 12:15 AM on Monday 22 Dec 2014 (Local Time) from KFSW Reporting Station
Overcast Overcast  
Wind Chill: 34°   Ceiling: 3600
Heat Index: 39°   Visibility: 10mi
Dew Point: 36°   Wind: 7mph
Humidity: 87%   Direction: 160°SSE
Pressure: 29.88"   Gusts: NA
Location:  40.5943°N, 91.1327°W
Report Text: KFSW 220615Z AUTO 16006KT 10SM OVC036 04/02 A2988 RMK AO2
Loading
Personal Weather Stations






























Interactive Weather Map New forecast layout! Learn more

10-Day Weather Forecast

Advertisements
Track Severe Weather on mobile